Time;durP1;ratioP1;P1;durP2;ratioP2;P2;SDS_P1;SDS_P2;PMS_P1;PMS_P2;Temp;Humidity;BMP_temperature;BMP_pressure;BME280_temperature;BME280_humidity;BME280_pressure;Samples;Min_cycle;Max_cycle;Signal;HPM_P1;HPM_P2
2022/04/04 00:00:16;;;;;;;1.60;1.50;;;3.40;98.20;;;;;;5017953;28;20478;-77
2022/04/04 00:02:44;;;;;;;1.57;1.43;;;3.40;98.20;;;;;;5019163;28;20464;-78
2022/04/04 00:05:13;;;;;;;1.70;1.60;;;3.40;98.20;;;;;;5023565;28;20503;-79
2022/04/04 00:07:40;;;;;;;1.60;1.50;;;3.40;98.20;;;;;;5021062;28;20514;-78
2022/04/04 00:10:08;;;;;;;1.70;1.60;;;3.40;98.20;;;;;;5018479;28;20460;-78
2022/04/04 00:12:34;;;;;;;1.57;1.40;;;3.40;98.20;;;;;;5017934;28;20469;-80
2022/04/04 00:15:01;;;;;;;1.53;1.40;;;3.40;98.20;;;;;;5018978;28;20488;-79
2022/04/04 00:17:29;;;;;;;1.57;1.40;;;3.30;98.20;;;;;;5019308;28;20464;-78
2022/04/04 00:19:55;;;;;;;1.57;1.40;;;3.30;98.20;;;;;;5017612;28;20479;-80
2022/04/04 00:22:25;;;;;;;1.53;1.40;;;3.30;98.20;;;;;;5018239;28;20475;-79
2022/04/04 00:24:53;;;;;;;1.60;1.40;;;3.30;98.20;;;;;;5017353;28;20875;-77
2022/04/04 00:27:20;;;;;;;1.60;1.50;;;3.30;98.20;;;;;;5021274;28;20464;-79
2022/04/04 00:29:47;;;;;;;1.60;1.50;;;3.30;98.20;;;;;;5017907;28;20494;-81
2022/04/04 00:32:14;;;;;;;1.60;1.50;;;3.30;98.20;;;;;;5016481;28;20468;-77
2022/04/04 00:34:41;;;;;;;1.60;1.40;;;3.20;98.20;;;;;;5017787;28;20483;-78
2022/04/04 00:37:08;;;;;;;1.60;1.50;;;3.20;98.20;;;;;;5018445;28;20472;-78
2022/04/04 00:39:37;;;;;;;1.53;1.40;;;3.20;98.20;;;;;;5016439;28;20554;-78
2022/04/04 00:42:06;;;;;;;1.57;1.47;;;3.20;98.20;;;;;;5014197;28;20533;-80
2022/04/04 00:44:32;;;;;;;1.53;1.40;;;3.10;98.20;;;;;;5017409;28;20541;-79
2022/04/04 00:47:01;;;;;;;1.60;1.40;;;3.10;98.20;;;;;;5021706;28;20479;-79
2022/04/04 00:49:28;;;;;;;1.57;1.47;;;3.10;98.20;;;;;;5017370;28;20475;-79
2022/04/04 00:51:55;;;;;;;1.60;1.50;;;3.10;98.20;;;;;;5016980;28;20456;-79
2022/04/04 00:54:23;;;;;;;1.57;1.43;;;3.10;98.20;;;;;;5017538;28;20487;-80
2022/04/04 00:56:52;;;;;;;1.60;1.50;;;3.10;98.20;;;;;;5022413;28;20547;-80
2022/04/04 00:59:21;;;;;;;1.60;1.50;;;3.00;98.20;;;;;;5017433;28;20499;-79
2022/04/04 01:01:48;;;;;;;1.53;1.40;;;3.00;98.20;;;;;;5020382;28;20464;-79
2022/04/04 01:04:16;;;;;;;1.60;1.50;;;3.00;98.20;;;;;;5020262;28;20484;-80
2022/04/04 01:06:43;;;;;;;1.53;1.40;;;3.00;98.20;;;;;;5025603;28;20778;-80
2022/04/04 01:09:14;;;;;;;1.60;1.50;;;3.00;98.20;;;;;;5017074;28;20867;-82
2022/04/04 01:12:02;;;;;;;1.60;1.50;;;3.00;98.20;;;;;;5015596;28;20510;-79
2022/04/04 01:14:28;;;;;;;1.60;1.50;;;2.90;98.20;;;;;;5016409;28;20600;-81
2022/04/04 01:16:55;;;;;;;1.70;1.60;;;2.90;98.20;;;;;;5020555;28;20615;-80
2022/04/04 01:19:22;;;;;;;1.60;1.40;;;2.90;98.20;;;;;;5016006;28;20495;-79
2022/04/04 01:21:49;;;;;;;1.50;1.40;;;2.90;98.20;;;;;;5016620;28;20461;-80
2022/04/04 01:24:19;;;;;;;1.60;1.50;;;2.90;98.20;;;;;;5015899;28;20531;-77
2022/04/04 01:26:47;;;;;;;1.60;1.40;;;2.90;98.20;;;;;;5016847;28;20555;-78
2022/04/04 01:29:14;;;;;;;1.60;1.50;;;2.90;98.20;;;;;;5005083;28;20460;-79
2022/04/04 01:31:42;;;;;;;1.60;1.50;;;2.90;98.20;;;;;;5015907;28;20553;-79
2022/04/04 01:34:09;;;;;;;1.63;1.53;;;2.90;98.20;;;;;;5016050;28;21018;-79
2022/04/04 01:36:37;;;;;;;1.60;1.47;;;2.90;98.20;;;;;;5017351;28;20491;-79
2022/04/04 01:39:08;;;;;;;1.57;1.43;;;2.90;98.20;;;;;;5011441;28;20547;-77
2022/04/04 01:41:36;;;;;;;1.53;1.40;;;2.90;98.20;;;;;;5011758;28;20888;-80
2022/04/04 01:44:03;;;;;;;1.60;1.50;;;2.90;98.20;;;;;;5015470;28;20511;-77
2022/04/04 01:46:30;;;;;;;1.70;1.60;;;2.80;98.20;;;;;;5016146;28;21046;-79
2022/04/04 01:48:58;;;;;;;1.60;1.50;;;2.80;98.20;;;;;;5015139;28;20485;-77
2022/04/04 01:51:26;;;;;;;1.70;1.60;;;2.80;98.20;;;;;;5012482;28;20474;-77
2022/04/04 01:53:53;;;;;;;1.60;1.40;;;2.90;98.20;;;;;;5016182;28;20487;-79
2022/04/04 01:56:21;;;;;;;1.60;1.50;;;2.80;98.20;;;;;;5019646;28;20915;-77
2022/04/04 01:58:49;;;;;;;1.67;1.57;;;2.80;98.20;;;;;;5018170;28;21044;-79
2022/04/04 02:01:18;;;;;;;1.67;1.57;;;2.80;98.20;;;;;;5015031;28;21017;-77
2022/04/04 02:03:47;;;;;;;1.53;1.40;;;2.80;98.20;;;;;;5016355;28;20492;-78
2022/04/04 02:06:14;;;;;;;1.60;1.50;;;2.80;98.20;;;;;;5019703;28;20571;-78
2022/04/04 02:08:43;;;;;;;1.53;1.40;;;2.80;98.20;;;;;;5016721;28;20472;-77
2022/04/04 02:11:10;;;;;;;1.60;1.50;;;2.80;98.20;;;;;;5016706;28;20662;-79
2022/04/04 02:13:37;;;;;;;1.60;1.50;;;2.80;98.20;;;;;;5047878;22;20648;-75
2022/04/04 02:16:06;;;;;;;1.60;1.50;;;2.80;98.20;;;;;;5052796;28;20450;-75
2022/04/04 02:18:34;;;;;;;1.60;1.50;;;2.80;98.20;;;;;;5051804;28;20465;-75
2022/04/04 02:21:02;;;;;;;1.60;1.50;;;2.80;98.20;;;;;;5050652;28;20508;-75
2022/04/04 02:23:29;;;;;;;1.60;1.40;;;2.80;98.20;;;;;;5050920;28;20982;-75
2022/04/04 02:25:57;;;;;;;1.70;1.60;;;2.80;98.20;;;;;;5051819;28;20486;-75
2022/04/04 02:28:25;;;;;;;1.60;1.50;;;2.80;98.20;;;;;;5051687;28;20477;-76
2022/04/04 02:30:53;;;;;;;1.60;1.40;;;2.70;98.20;;;;;;5047253;28;20502;-75
2022/04/04 02:33:24;;;;;;;1.60;1.50;;;2.70;98.20;;;;;;5051054;28;20489;-75
2022/04/04 02:35:52;;;;;;;1.50;1.40;;;2.70;98.20;;;;;;5047563;28;20451;-73
2022/04/04 02:38:20;;;;;;;1.60;1.40;;;2.70;98.20;;;;;;5050494;28;20454;-76
2022/04/04 02:40:47;;;;;;;1.60;1.40;;;2.70;98.20;;;;;;5049492;28;20462;-74
2022/04/04 02:43:14;;;;;;;1.70;1.60;;;2.70;98.20;;;;;;5050636;28;20493;-77
2022/04/04 02:45:41;;;;;;;1.60;1.47;;;2.70;98.20;;;;;;5051161;28;20485;-76
2022/04/04 02:48:08;;;;;;;1.60;1.50;;;2.70;98.20;;;;;;5051010;28;20471;-75
2022/04/04 02:50:39;;;;;;;1.60;1.50;;;2.70;98.20;;;;;;5050353;28;20512;-75
2022/04/04 02:53:05;;;;;;;1.77;1.67;;;2.70;98.20;;;;;;5052347;28;20831;-74
2022/04/04 02:58:18;;;;;;;1.60;1.50;;;2.60;98.20;;;;;;5019779;28;20529;-76
2022/04/04 03:00:45;;;;;;;1.60;1.50;;;2.60;98.20;;;;;;5050441;28;20836;-76
2022/04/04 03:03:12;;;;;;;1.60;1.50;;;2.60;98.20;;;;;;5050948;28;20755;-76
2022/04/04 03:05:41;;;;;;;1.60;1.50;;;2.60;98.20;;;;;;5051483;28;20509;-76
2022/04/04 03:08:08;;;;;;;1.60;1.50;;;2.60;98.20;;;;;;5049164;28;20566;-75
2022/04/04 03:10:35;;;;;;;1.60;1.50;;;2.60;98.20;;;;;;5050434;28;20484;-75
2022/04/04 03:13:05;;;;;;;1.70;1.60;;;2.60;98.20;;;;;;5047792;28;20470;-75
2022/04/04 03:15:34;;;;;;;1.60;1.50;;;2.60;98.20;;;;;;5051124;28;20925;-75
2022/04/04 03:18:01;;;;;;;1.57;1.47;;;2.60;98.20;;;;;;5051628;28;20458;-75
2022/04/04 03:20:28;;;;;;;1.70;1.60;;;2.60;98.20;;;;;;5050121;28;20462;-75
2022/04/04 03:22:57;;;;;;;1.70;1.60;;;2.60;98.20;;;;;;5051034;28;20466;-75
2022/04/04 03:25:25;;;;;;;1.57;1.40;;;2.60;98.20;;;;;;5049626;28;20493;-76
2022/04/04 03:27:53;;;;;;;1.60;1.50;;;2.50;98.20;;;;;;5051328;28;20465;-73
2022/04/04 03:30:22;;;;;;;1.60;1.50;;;2.50;98.20;;;;;;5050714;28;20477;-76
2022/04/04 03:32:50;;;;;;;1.60;1.50;;;2.50;98.20;;;;;;5052310;28;20494;-76
2022/04/04 03:35:17;;;;;;;1.60;1.50;;;2.50;98.20;;;;;;5051636;28;20470;-76
2022/04/04 03:37:46;;;;;;;1.57;1.47;;;2.50;98.20;;;;;;5050701;28;20465;-75
2022/04/04 03:40:16;;;;;;;1.60;1.50;;;2.50;98.20;;;;;;5050405;28;21005;-77
2022/04/04 03:42:44;;;;;;;1.60;1.50;;;2.60;98.20;;;;;;5049936;28;20501;-74
2022/04/04 03:45:13;;;;;;;1.60;1.47;;;2.60;98.20;;;;;;5049929;28;20998;-76
2022/04/04 03:47:40;;;;;;;1.60;1.50;;;2.60;98.20;;;;;;5051432;28;20532;-74
2022/04/04 03:50:09;;;;;;;1.57;1.47;;;2.60;98.20;;;;;;5051140;28;20521;-75
2022/04/04 03:52:36;;;;;;;1.57;1.40;;;2.60;98.20;;;;;;5051657;28;20864;-75
2022/04/04 03:55:04;;;;;;;1.60;1.50;;;2.60;98.20;;;;;;5051234;28;20491;-74
2022/04/04 03:57:33;;;;;;;1.80;1.70;;;2.70;98.20;;;;;;5051807;28;21026;-77
2022/04/04 03:59:59;;;;;;;1.60;1.50;;;2.70;98.20;;;;;;5050914;28;20553;-75
2022/04/04 04:02:26;;;;;;;1.70;1.60;;;2.70;98.20;;;;;;5051098;28;20542;-75
2022/04/04 04:04:53;;;;;;;1.60;1.47;;;2.70;98.20;;;;;;5051646;28;20854;-76
2022/04/04 04:07:24;;;;;;;1.60;1.50;;;2.70;98.20;;;;;;5049781;28;20482;-76
2022/04/04 04:09:51;;;;;;;1.57;1.40;;;2.70;98.20;;;;;;5050089;28;20950;-76
2022/04/04 04:12:18;;;;;;;1.60;1.40;;;2.70;98.20;;;;;;5049811;28;20469;-76
2022/04/04 04:14:46;;;;;;;1.53;1.40;;;2.70;98.20;;;;;;5049888;28;20521;-75
2022/04/04 04:17:15;;;;;;;1.60;1.50;;;2.70;98.20;;;;;;5050366;28;20458;-76
2022/04/04 04:22:26;;;;;;;1.67;1.57;;;2.80;98.20;;;;;;5048884;28;20565;-74
2022/04/04 04:24:53;;;;;;;1.60;1.50;;;2.80;98.20;;;;;;5048478;28;20997;-77
2022/04/04 04:27:20;;;;;;;1.60;1.50;;;2.80;98.20;;;;;;5049514;28;20490;-75
2022/04/04 04:29:49;;;;;;;1.60;1.50;;;2.80;98.20;;;;;;5052106;28;20470;-75
2022/04/04 04:32:15;;;;;;;1.57;1.40;;;2.80;98.20;;;;;;5052215;28;20899;-75
2022/04/04 04:34:46;;;;;;;1.53;1.40;;;2.80;98.20;;;;;;5054992;28;20489;-75
2022/04/04 04:37:13;;;;;;;1.60;1.50;;;2.80;98.20;;;;;;5054144;28;20458;-75
2022/04/04 04:39:40;;;;;;;1.57;1.43;;;2.80;98.20;;;;;;5054206;28;20458;-75
2022/04/04 04:42:08;;;;;;;1.53;1.40;;;2.80;98.20;;;;;;5049872;28;20462;-76
2022/04/04 04:44:35;;;;;;;1.60;1.50;;;2.80;98.20;;;;;;5053976;28;20482;-76
2022/04/04 04:47:04;;;;;;;1.67;1.57;;;2.80;98.20;;;;;;5047657;28;20492;-74
2022/04/04 04:49:31;;;;;;;1.70;1.60;;;2.80;98.20;;;;;;5048260;28;20476;-76
2022/04/04 04:51:58;;;;;;;1.60;1.43;;;2.80;98.20;;;;;;5054688;28;20540;-75
2022/04/04 04:54:25;;;;;;;1.60;1.50;;;2.90;98.20;;;;;;5054039;28;20490;-74
2022/04/04 04:56:52;;;;;;;1.60;1.40;;;2.90;98.20;;;;;;5047389;28;20577;-74
2022/04/04 04:59:19;;;;;;;1.73;1.63;;;2.90;98.20;;;;;;5053214;28;20834;-77
2022/04/04 05:01:46;;;;;;;1.60;1.50;;;2.90;98.20;;;;;;5054191;28;20526;-75
2022/04/04 05:04:14;;;;;;;1.70;1.60;;;3.00;98.20;;;;;;5053809;28;20484;-74
2022/04/04 05:06:41;;;;;;;1.60;1.50;;;3.00;98.20;;;;;;5054143;28;20585;-75
2022/04/04 05:09:08;;;;;;;1.60;1.50;;;3.00;98.20;;;;;;5054316;28;20463;-77
2022/04/04 05:11:35;;;;;;;1.57;1.40;;;3.00;98.20;;;;;;5051292;28;21021;-77
2022/04/04 05:14:02;;;;;;;1.90;1.80;;;3.00;98.20;;;;;;5051946;28;20498;-75
2022/04/04 05:16:29;;;;;;;1.53;1.40;;;3.10;98.20;;;;;;5053826;28;20540;-73
2022/04/04 05:18:56;;;;;;;1.50;1.40;;;3.10;98.20;;;;;;5052840;28;20485;-75
2022/04/04 05:21:25;;;;;;;1.60;1.43;;;3.10;98.20;;;;;;5050965;28;20466;-75
2022/04/04 05:23:51;;;;;;;1.60;1.40;;;3.10;98.20;;;;;;5054206;28;20482;-76
2022/04/04 05:26:18;;;;;;;2.07;1.97;;;3.20;98.20;;;;;;5053005;28;20482;-76
2022/04/04 05:28:45;;;;;;;1.60;1.40;;;3.10;98.20;;;;;;5050782;28;20477;-76
2022/04/04 05:31:12;;;;;;;1.60;1.50;;;3.20;98.20;;;;;;5051829;28;20543;-74
2022/04/04 05:33:39;;;;;;;1.57;1.40;;;3.20;98.20;;;;;;5053770;28;20701;-75
2022/04/04 05:36:07;;;;;;;1.60;1.40;;;3.20;98.20;;;;;;5050718;28;20465;-76
2022/04/04 05:38:35;;;;;;;1.60;1.50;;;3.30;98.20;;;;;;5051538;28;20475;-75
2022/04/04 05:41:02;;;;;;;1.60;1.40;;;3.30;98.20;;;;;;5050479;28;20466;-75
2022/04/04 05:43:29;;;;;;;1.57;1.30;;;3.30;98.20;;;;;;5053161;28;20544;-77
2022/04/04 05:45:56;;;;;;;1.60;1.40;;;3.40;98.20;;;;;;5052610;28;20477;-77
2022/04/04 05:48:25;;;;;;;1.60;1.40;;;3.40;98.20;;;;;;5052420;28;20950;-77
2022/04/04 05:50:53;;;;;;;1.50;1.40;;;3.50;98.20;;;;;;5046359;28;20498;-78
2022/04/04 05:53:21;;;;;;;1.60;1.40;;;3.50;98.20;;;;;;5051022;28;20490;-75
2022/04/04 05:55:49;;;;;;;1.70;1.60;;;3.60;98.20;;;;;;5053080;28;20954;-76
2022/04/04 05:58:15;;;;;;;1.60;1.40;;;3.60;98.20;;;;;;5052473;28;20486;-77
2022/04/04 06:00:42;;;;;;;2.07;1.97;;;3.70;98.20;;;;;;5049936;28;20895;-76
2022/04/04 06:03:09;;;;;;;2.20;2.10;;;3.70;98.20;;;;;;5051665;28;20482;-77
2022/04/04 06:05:36;;;;;;;1.60;1.40;;;3.80;98.20;;;;;;5052156;28;20489;-78
2022/04/04 06:08:03;;;;;;;1.53;1.40;;;3.90;98.20;;;;;;5050162;28;20968;-77
2022/04/04 06:10:30;;;;;;;1.57;1.40;;;3.90;98.20;;;;;;5048621;28;20470;-77
2022/04/04 06:12:58;;;;;;;1.53;1.40;;;4.00;98.20;;;;;;5047906;28;20473;-77
2022/04/04 06:15:25;;;;;;;1.60;1.50;;;4.00;98.00;;;;;;5050136;28;20468;-75
2022/04/04 06:17:52;;;;;;;1.60;1.40;;;4.10;97.80;;;;;;5048422;28;20545;-75
2022/04/04 06:20:19;;;;;;;1.57;1.40;;;4.10;97.60;;;;;;5048762;28;20462;-78
2022/04/04 06:22:47;;;;;;;1.53;1.30;;;4.20;97.20;;;;;;5048363;28;20538;-75
2022/04/04 06:25:14;;;;;;;1.57;1.40;;;4.20;97.00;;;;;;5049145;28;20466;-77
2022/04/04 06:27:42;;;;;;;1.50;1.30;;;4.30;96.90;;;;;;5048981;28;20494;-76
2022/04/04 06:30:12;;;;;;;1.60;1.43;;;4.30;96.70;;;;;;5049512;28;20858;-76
2022/04/04 06:32:41;;;;;;;1.53;1.30;;;4.40;96.70;;;;;;5048488;28;20470;-75
2022/04/04 06:35:08;;;;;;;1.50;1.30;;;4.40;96.40;;;;;;5049064;28;20482;-75
2022/04/04 06:37:36;;;;;;;1.60;1.50;;;4.40;96.20;;;;;;5049975;28;20454;-77
2022/04/04 06:40:04;;;;;;;1.60;1.30;;;4.50;95.90;;;;;;5054467;28;20959;-77
2022/04/04 06:42:31;;;;;;;1.50;1.30;;;4.50;95.90;;;;;;5047737;28;20470;-77
2022/04/04 06:44:58;;;;;;;1.60;1.40;;;4.50;95.60;;;;;;5049226;28;20490;-77
2022/04/04 06:47:27;;;;;;;1.60;1.37;;;4.60;95.50;;;;;;5048984;28;20493;-77
2022/04/04 06:49:54;;;;;;;1.57;1.30;;;4.70;95.60;;;;;;5049077;28;20519;-77
2022/04/04 06:52:21;;;;;;;1.57;1.40;;;4.80;95.50;;;;;;5049690;28;20463;-76
2022/04/04 06:54:48;;;;;;;1.50;1.30;;;5.00;95.10;;;;;;5052231;28;20575;-77
2022/04/04 06:57:15;;;;;;;1.60;1.40;;;5.10;94.50;;;;;;5053105;28;20489;-78
2022/04/04 06:59:42;;;;;;;1.60;1.40;;;5.30;93.60;;;;;;5052370;28;20553;-77
2022/04/04 07:02:09;;;;;;;1.53;1.30;;;5.40;93.40;;;;;;5053566;28;20478;-75
2022/04/04 07:04:38;;;;;;;1.50;1.30;;;5.50;92.90;;;;;;5053570;28;20514;-77
2022/04/04 07:07:05;;;;;;;1.50;1.30;;;5.80;92.70;;;;;;5051643;28;20482;-77
2022/04/04 07:09:31;;;;;;;1.53;1.30;;;6.10;91.60;;;;;;5053127;28;20477;-76
2022/04/04 07:11:58;;;;;;;1.50;1.30;;;6.40;90.60;;;;;;5052296;28;20466;-76
2022/04/04 07:14:25;;;;;;;1.50;1.27;;;6.70;90.40;;;;;;5052376;28;20493;-77
2022/04/04 07:16:53;;;;;;;1.50;1.30;;;6.90;89.00;;;;;;5054264;28;20451;-77
2022/04/04 07:19:22;;;;;;;1.60;1.30;;;7.10;87.30;;;;;;5053082;28;20523;-76
2022/04/04 07:21:50;;;;;;;1.50;1.20;;;7.10;87.40;;;;;;5055933;28;20497;-77
2022/04/04 07:24:17;;;;;;;1.50;1.20;;;7.10;87.70;;;;;;5059774;28;20565;-76
2022/04/04 07:26:44;;;;;;;1.53;1.30;;;7.10;86.90;;;;;;5053374;28;20486;-76
2022/04/04 07:29:14;;;;;;;1.60;1.20;;;7.10;87.20;;;;;;5054649;28;20464;-77
2022/04/04 07:31:42;;;;;;;1.57;1.20;;;7.20;87.30;;;;;;5054213;28;20808;-76
2022/04/04 07:34:10;;;;;;;1.50;1.20;;;7.20;86.70;;;;;;5054687;28;20486;-77
2022/04/04 07:36:37;;;;;;;1.50;1.20;;;7.40;86.70;;;;;;5054043;28;20462;-77
2022/04/04 07:39:06;;;;;;;1.50;1.20;;;7.40;86.80;;;;;;5051717;28;20454;-77
2022/04/04 07:41:32;;;;;;;1.83;1.63;;;7.60;86.80;;;;;;5052195;28;20454;-77
2022/04/04 07:43:59;;;;;;;1.50;1.20;;;7.70;85.50;;;;;;5054555;28;20505;-76
2022/04/04 07:46:26;;;;;;;1.50;1.23;;;7.80;85.20;;;;;;5053577;28;20455;-76
2022/04/04 07:48:55;;;;;;;1.50;1.20;;;7.90;85.10;;;;;;5054298;28;20478;-76
2022/04/04 07:51:22;;;;;;;1.50;1.20;;;8.00;84.90;;;;;;5052700;28;20454;-77
2022/04/04 07:53:48;;;;;;;1.50;1.30;;;8.00;84.70;;;;;;5053958;28;20549;-76
2022/04/04 07:56:19;;;;;;;1.50;1.10;;;8.00;84.50;;;;;;5053575;28;20459;-76
2022/04/04 07:58:46;;;;;;;1.50;1.20;;;8.20;83.90;;;;;;5054267;28;20469;-75
2022/04/04 08:01:13;;;;;;;1.50;1.10;;;8.30;83.80;;;;;;5047146;28;20463;-78
2022/04/04 08:03:40;;;;;;;1.57;1.30;;;8.40;83.40;;;;;;5050715;28;20486;-77
2022/04/04 08:06:07;;;;;;;1.50;1.20;;;8.40;82.60;;;;;;5050932;28;20473;-74
2022/04/04 08:08:34;;;;;;;1.50;1.10;;;8.40;82.80;;;;;;5051252;28;20508;-77
2022/04/04 08:11:02;;;;;;;1.50;1.20;;;8.40;83.00;;;;;;5052196;28;20599;-75
2022/04/04 08:15:56;;;;;;;1.53;1.20;;;8.40;82.80;;;;;;5087132;22;21684;-76
2022/04/04 08:18:24;;;;;;;1.50;1.30;;;8.30;83.00;;;;;;5075965;28;20199;-79
2022/04/04 08:20:55;;;;;;;1.50;1.10;;;8.30;83.30;;;;;;5076730;28;20492;-76
2022/04/04 08:23:22;;;;;;;1.50;1.20;;;8.30;83.50;;;;;;5077233;28;21000;-78
2022/04/04 08:25:49;;;;;;;1.50;1.20;;;8.30;83.80;;;;;;5059513;28;20484;-81
2022/04/04 08:28:16;;;;;;;1.50;1.10;;;8.30;83.80;;;;;;5048785;28;20489;-76
2022/04/04 08:30:44;;;;;;;1.90;1.70;;;8.30;83.40;;;;;;5049961;28;20469;-76
2022/04/04 08:33:12;;;;;;;1.50;1.20;;;8.30;83.50;;;;;;5052513;28;20537;-77
2022/04/04 08:35:39;;;;;;;1.50;1.20;;;8.30;83.40;;;;;;5051428;28;20488;-76
2022/04/04 08:38:06;;;;;;;1.50;1.20;;;8.40;83.70;;;;;;5053437;28;20462;-76
2022/04/04 08:40:33;;;;;;;1.50;1.20;;;8.40;83.40;;;;;;5053538;28;20948;-78
2022/04/04 08:43:01;;;;;;;1.50;1.20;;;8.40;83.00;;;;;;5050399;28;20469;-77
2022/04/04 08:45:29;;;;;;;1.50;1.20;;;8.40;82.90;;;;;;5055604;28;20485;-78
2022/04/04 08:47:57;;;;;;;1.50;1.20;;;8.40;82.80;;;;;;5054944;28;20498;-77
2022/04/04 08:50:25;;;;;;;1.50;1.20;;;8.40;82.50;;;;;;5046671;28;20461;-75
2022/04/04 08:52:52;;;;;;;1.50;1.20;;;8.50;82.80;;;;;;5056679;28;20528;-77
2022/04/04 08:55:22;;;;;;;1.50;1.20;;;8.50;82.30;;;;;;5052971;28;20492;-78
2022/04/04 08:57:50;;;;;;;1.50;1.10;;;8.50;82.20;;;;;;5050223;28;20455;-77
2022/04/04 09:00:17;;;;;;;1.50;1.20;;;8.50;82.20;;;;;;5052992;28;20466;-77
2022/04/04 09:02:57;;;;;;;1.50;1.10;;;8.60;82.20;;;;;;5055210;28;20522;-78
2022/04/04 09:05:26;;;;;;;1.50;1.20;;;8.60;82.50;;;;;;5054732;28;20482;-79
2022/04/04 09:08:00;;;;;;;1.50;1.10;;;8.60;81.20;;;;;;5054841;28;20489;-77
2022/04/04 09:10:32;;;;;;;1.50;1.10;;;8.70;81.50;;;;;;5043534;28;20466;-77
2022/04/04 09:13:06;;;;;;;1.50;1.20;;;8.60;80.90;;;;;;5043683;28;20462;-76
2022/04/04 09:15:55;;;;;;;1.50;1.20;;;8.70;81.40;;;;;;5046244;28;20496;-77
2022/04/04 09:18:42;;;;;;;1.50;1.10;;;8.70;81.20;;;;;;5043911;28;20679;-76
2022/04/04 09:21:38;;;;;;;1.50;1.10;;;8.80;81.10;;;;;;5046822;28;20466;-77
2022/04/04 09:24:11;;;;;;;1.50;1.10;;;8.90;81.40;;;;;;5048852;28;20489;-76
2022/04/04 09:26:40;;;;;;;1.50;1.10;;;9.00;80.40;;;;;;5047511;28;20865;-76
2022/04/04 09:29:09;;;;;;;1.50;1.20;;;9.00;81.20;;;;;;5051706;28;20490;-76
2022/04/04 09:31:36;;;;;;;1.50;1.10;;;9.10;81.40;;;;;;5049662;28;20465;-76
2022/04/04 09:34:05;;;;;;;1.57;1.20;;;9.10;80.90;;;;;;5051640;28;20876;-77
2022/04/04 09:36:33;;;;;;;1.50;1.10;;;9.10;81.10;;;;;;5050456;28;20470;-76
2022/04/04 09:39:08;;;;;;;1.60;1.50;;;9.00;80.30;;;;;;5054899;28;20538;-76
2022/04/04 09:41:36;;;;;;;1.50;1.20;;;8.90;80.70;;;;;;5037734;28;20557;-77
2022/04/04 09:44:05;;;;;;;1.50;1.10;;;8.90;81.30;;;;;;5044698;28;20508;-75
2022/04/04 09:46:33;;;;;;;1.50;1.10;;;8.90;81.10;;;;;;5051153;28;20466;-76
2022/04/04 09:49:20;;;;;;;1.50;1.10;;;8.90;81.00;;;;;;5045709;28;20482;-76
2022/04/04 09:51:51;;;;;;;1.90;1.60;;;8.80;81.40;;;;;;5047526;28;21004;-77
2022/04/04 09:54:19;;;;;;;1.50;1.13;;;8.80;81.20;;;;;;5048801;28;20540;-77
2022/04/04 09:56:57;;;;;;;1.50;1.27;;;8.80;81.50;;;;;;5053303;28;20459;-81
2022/04/04 09:59:25;;;;;;;1.60;1.40;;;8.80;81.50;;;;;;5060073;28;20535;-79
2022/04/04 10:01:52;;;;;;;1.50;1.10;;;8.80;81.90;;;;;;5049859;28;20462;-76
2022/04/04 10:04:21;;;;;;;1.50;1.10;;;8.80;82.30;;;;;;5055777;28;20581;-79
2022/04/04 10:07:21;;;;;;;1.50;1.10;;;8.70;82.30;;;;;;5061321;28;20462;-76
2022/04/04 10:10:02;;;;;;;1.50;1.10;;;8.50;82.80;;;;;;5055240;28;20451;-81
2022/04/04 10:12:29;;;;;;;1.50;1.20;;;8.50;83.60;;;;;;5049736;28;20521;-78
2022/04/04 10:14:56;;;;;;;1.50;1.10;;;8.50;83.40;;;;;;5062069;28;20490;-77
2022/04/04 10:17:23;;;;;;;1.50;1.10;;;8.50;83.50;;;;;;5055599;28;20452;-81
2022/04/04 10:19:51;;;;;;;1.50;1.20;;;8.40;83.70;;;;;;5059158;28;20981;-76
2022/04/04 10:22:20;;;;;;;1.50;1.13;;;8.40;84.40;;;;;;5054718;28;20478;-75
2022/04/04 10:24:47;;;;;;;1.50;1.10;;;8.40;84.60;;;;;;5051861;28;20513;-75
2022/04/04 10:27:16;;;;;;;1.50;1.10;;;8.30;85.30;;;;;;5048997;28;20462;-77
2022/04/04 10:29:44;;;;;;;1.50;1.17;;;8.30;86.10;;;;;;5051012;28;20489;-78
2022/04/04 10:32:23;;;;;;;1.50;1.20;;;8.30;86.10;;;;;;5044696;28;20872;-74
2022/04/04 10:34:51;;;;;;;1.50;1.10;;;8.30;86.40;;;;;;5051284;28;21204;-77
2022/04/04 10:37:21;;;;;;;1.50;1.30;;;8.30;86.70;;;;;;5050342;28;20462;-75
2022/04/04 10:39:50;;;;;;;1.50;1.10;;;8.20;86.70;;;;;;5050471;28;20520;-77
2022/04/04 10:42:29;;;;;;;1.50;1.10;;;8.20;85.80;;;;;;5037798;28;20483;-76
2022/04/04 10:45:00;;;;;;;1.50;1.10;;;8.20;85.90;;;;;;5046016;28;20494;-77
2022/04/04 10:47:29;;;;;;;1.50;1.30;;;8.30;86.50;;;;;;5043495;28;20893;-77
2022/04/04 10:49:56;;;;;;;1.50;1.20;;;8.30;85.90;;;;;;5037294;28;20834;-76
2022/04/04 10:52:39;;;;;;;1.50;1.10;;;8.30;85.70;;;;;;5034053;28;21032;-75
2022/04/04 10:55:44;;;;;;;1.50;1.10;;;8.30;86.00;;;;;;5073326;22;21167;-75
2022/04/04 10:58:20;;;;;;;1.50;1.23;;;8.30;86.00;;;;;;5079827;28;20464;-76
2022/04/04 11:00:55;;;;;;;1.50;1.20;;;8.30;85.50;;;;;;5081019;28;20457;-74
2022/04/04 11:03:30;;;;;;;1.50;1.10;;;8.30;85.60;;;;;;5089984;28;20464;-75
2022/04/04 11:09:00;;;;;;;1.50;1.17;;;8.20;87.10;;;;;;5068230;28;20539;-77
2022/04/04 11:11:47;;;;;;;1.50;1.10;;;8.20;87.90;;;;;;5067841;28;20461;-75
2022/04/04 11:14:16;;;;;;;1.50;1.20;;;8.30;88.60;;;;;;5067408;28;20481;-79
2022/04/04 11:17:43;;;;;;;1.50;1.30;;;8.20;89.20;;;;;;5072416;28;20462;-74
2022/04/04 11:20:50;;;;;;;1.50;1.30;;;8.10;89.00;;;;;;5071548;28;20457;-75
2022/04/04 11:23:20;;;;;;;2.50;2.30;;;8.00;89.00;;;;;;5066002;28;20457;-77
2022/04/04 11:25:52;;;;;;;1.50;1.17;;;7.80;89.80;;;;;;5076369;28;20485;-76
2022/04/04 11:28:24;;;;;;;1.50;1.20;;;7.70;91.50;;;;;;5056061;28;21013;-76
2022/04/04 11:31:02;;;;;;;1.50;1.20;;;7.60;93.00;;;;;;5061638;28;20461;-77
2022/04/04 11:33:31;;;;;;;1.50;1.20;;;7.50;94.90;;;;;;5071052;28;20781;-74
2022/04/04 11:35:58;;;;;;;1.50;1.10;;;7.40;95.10;;;;;;5074290;28;20461;-78
2022/04/04 11:38:25;;;;;;;1.50;1.13;;;7.40;95.50;;;;;;5076911;28;20461;-75
2022/04/04 11:40:55;;;;;;;1.50;1.20;;;7.30;95.70;;;;;;5068965;28;20457;-78
2022/04/04 11:43:25;;;;;;;1.50;1.20;;;7.20;95.90;;;;;;5065616;28;20487;-78
2022/04/04 11:45:56;;;;;;;1.50;1.20;;;7.20;96.90;;;;;;5076243;28;20552;-77
2022/04/04 11:48:28;;;;;;;1.50;1.20;;;7.10;97.90;;;;;;5069219;28;20485;-75
2022/04/04 11:50:57;;;;;;;1.50;1.20;;;7.10;97.90;;;;;;5072974;28;20471;-74
2022/04/04 11:53:26;;;;;;;1.50;1.20;;;7.00;98.20;;;;;;5072427;28;20888;-75
2022/04/04 11:56:00;;;;;;;1.50;1.20;;;6.90;98.20;;;;;;5072059;28;20941;-76
2022/04/04 11:58:28;;;;;;;1.50;1.20;;;6.90;98.20;;;;;;5062139;28;20547;-74
2022/04/04 12:01:04;;;;;;;1.50;1.20;;;6.80;98.20;;;;;;5064473;28;20467;-76
2022/04/04 12:03:33;;;;;;;1.50;1.20;;;6.80;98.20;;;;;;5065039;28;20457;-77
2022/04/04 12:06:06;;;;;;;1.57;1.33;;;6.70;98.20;;;;;;5070485;28;20552;-75
2022/04/04 12:08:35;;;;;;;1.80;1.70;;;6.70;98.20;;;;;;5066725;28;20573;-76
2022/04/04 12:11:02;;;;;;;1.50;1.23;;;6.70;98.20;;;;;;5061025;28;20470;-77
2022/04/04 12:13:31;;;;;;;1.50;1.30;;;6.70;98.20;;;;;;5065863;28;20848;-75
2022/04/04 12:15:58;;;;;;;1.50;1.20;;;6.70;98.20;;;;;;5065653;28;20548;-74
2022/04/04 12:18:26;;;;;;;1.50;1.20;;;6.60;98.20;;;;;;5066030;28;20644;-73
2022/04/04 12:20:55;;;;;;;1.53;1.30;;;6.50;98.20;;;;;;5065499;28;21024;-75
2022/04/04 12:26:17;;;;;;;1.50;1.33;;;6.40;98.20;;;;;;5073000;28;20453;-76
2022/04/04 12:28:54;;;;;;;1.50;1.30;;;6.40;98.20;;;;;;5065529;28;20474;-74
2022/04/04 12:31:22;;;;;;;1.50;1.20;;;6.30;98.20;;;;;;5062676;28;20937;-76
2022/04/04 12:33:54;;;;;;;1.50;1.30;;;6.30;98.20;;;;;;5072050;28;21008;-77
2022/04/04 12:36:27;;;;;;;1.53;1.30;;;6.20;98.20;;;;;;5068095;28;20465;-74
2022/04/04 12:38:58;;;;;;;1.57;1.30;;;6.20;98.20;;;;;;5072440;28;20918;-75
2022/04/04 12:41:25;;;;;;;1.50;1.30;;;6.20;98.20;;;;;;5061236;28;20453;-76
2022/04/04 12:44:01;;;;;;;1.50;1.30;;;6.10;98.20;;;;;;5065133;28;20477;-78
2022/04/04 12:46:31;;;;;;;1.50;1.30;;;6.10;98.20;;;;;;5070472;28;20472;-76
2022/04/04 12:49:09;;;;;;;1.50;1.20;;;6.10;98.20;;;;;;5066654;28;20490;-78
2022/04/04 12:51:36;;;;;;;1.53;1.30;;;6.00;98.20;;;;;;5073245;28;20483;-77
2022/04/04 12:54:03;;;;;;;1.57;1.30;;;6.00;98.20;;;;;;5068023;28;20490;-77
2022/04/04 12:56:32;;;;;;;1.50;1.30;;;6.00;98.20;;;;;;5072131;28;20461;-74
2022/04/04 12:59:05;;;;;;;1.50;1.20;;;6.00;98.20;;;;;;5062634;28;21155;-76
2022/04/04 13:01:32;;;;;;;1.50;1.30;;;6.00;98.20;;;;;;5070114;28;20466;-75
2022/04/04 13:03:59;;;;;;;1.50;1.20;;;6.00;98.20;;;;;;5070996;28;21053;-73
2022/04/04 13:06:30;;;;;;;1.57;1.30;;;6.00;98.20;;;;;;5069500;28;20961;-74
2022/04/04 13:08:58;;;;;;;1.50;1.20;;;6.10;98.20;;;;;;5068484;28;20490;-74
2022/04/04 13:11:26;;;;;;;1.50;1.23;;;6.10;98.20;;;;;;5062196;28;20544;-76
2022/04/04 13:14:05;;;;;;;1.50;1.30;;;6.10;98.20;;;;;;5065572;28;20477;-75
2022/04/04 13:16:35;;;;;;;1.50;1.20;;;6.10;98.20;;;;;;5056635;28;20519;-76
2022/04/04 13:19:03;;;;;;;1.53;1.30;;;6.10;98.20;;;;;;5071220;28;20526;-73
2022/04/04 13:21:30;;;;;;;1.60;1.50;;;6.10;98.20;;;;;;5066377;28;21035;-76